sensor_id;sensor_type;location;lat;lon;timestamp;temperature;humidity
7920;DHT22;18778;47.610;9.776;2023-05-10T00:06:34;12.80;99.90
7920;DHT22;18778;47.610;9.776;2023-05-10T00:08:59;12.80;99.90
7920;DHT22;18778;47.610;9.776;2023-05-10T00:11:25;12.80;99.90
7920;DHT22;18778;47.610;9.776;2023-05-10T00:21:08;12.90;99.90
7920;DHT22;18778;47.610;9.776;2023-05-10T00:26:00;12.90;99.90
7920;DHT22;18778;47.610;9.776;2023-05-10T00:28:27;12.90;99.90
7920;DHT22;18778;47.610;9.776;2023-05-10T00:30:53;12.80;99.90
7920;DHT22;18778;47.610;9.776;2023-05-10T00:33:19;12.90;99.90
7920;DHT22;18778;47.610;9.776;2023-05-10T00:35:44;16.40;99.90
7920;DHT22;18778;47.610;9.776;2023-05-10T00:45:30;12.30;99.90
7920;DHT22;18778;47.610;9.776;2023-05-10T00:47:57;12.30;99.90
7920;DHT22;18778;47.610;9.776;2023-05-10T00:50:23;12.20;99.90
7920;DHT22;18778;47.610;9.776;2023-05-10T00:52:49;12.10;99.90
7920;DHT22;18778;47.610;9.776;2023-05-10T01:00:09;12.00;99.90
7920;DHT22;18778;47.610;9.776;2023-05-10T01:02:35;11.90;99.90
7920;DHT22;18778;47.610;9.776;2023-05-10T01:05:02;11.90;99.90
7920;DHT22;18778;47.610;9.776;2023-05-10T01:09:55;11.90;99.90
7920;DHT22;18778;47.610;9.776;2023-05-10T01:12:21;11.90;99.90
7920;DHT22;18778;47.610;9.776;2023-05-10T01:14:47;11.80;99.90
7920;DHT22;18778;47.610;9.776;2023-05-10T01:17:13;11.90;99.90
7920;DHT22;18778;47.610;9.776;2023-05-10T01:19:40;11.90;99.90
7920;DHT22;18778;47.610;9.776;2023-05-10T01:25:31;12.00;99.90
7920;DHT22;18778;47.610;9.776;2023-05-10T01:29:05;12.00;99.90
7920;DHT22;18778;47.610;9.776;2023-05-10T01:31:30;13.60;99.90
7920;DHT22;18778;47.610;9.776;2023-05-10T01:34:08;11.90;99.90
7920;DHT22;18778;47.610;9.776;2023-05-10T01:36:47;11.90;99.90
7920;DHT22;18778;47.610;9.776;2023-05-10T01:39:32;11.90;99.90
7920;DHT22;18778;47.610;9.776;2023-05-10T01:42:10;11.70;99.90
7920;DHT22;18778;47.610;9.776;2023-05-10T01:47:33;11.80;99.90
7920;DHT22;18778;47.610;9.776;2023-05-10T01:50:03;11.80;99.90
7920;DHT22;18778;47.610;9.776;2023-05-10T01:52:33;11.80;99.90
7920;DHT22;18778;47.610;9.776;2023-05-10T01:55:05;11.70;99.90
7920;DHT22;18778;47.610;9.776;2023-05-10T01:57:36;11.70;99.90
7920;DHT22;18778;47.610;9.776;2023-05-10T02:00:06;11.70;99.90
7920;DHT22;18778;47.610;9.776;2023-05-10T02:02:37;11.70;99.90
7920;DHT22;18778;47.610;9.776;2023-05-10T02:05:05;11.80;99.90
7920;DHT22;18778;47.610;9.776;2023-05-10T02:12:25;11.70;99.90
7920;DHT22;18778;47.610;9.776;2023-05-10T02:14:53;11.70;99.90
7920;DHT22;18778;47.610;9.776;2023-05-10T02:19:46;11.70;99.90
7920;DHT22;18778;47.610;9.776;2023-05-10T02:24:39;11.70;99.90
7920;DHT22;18778;47.610;9.776;2023-05-10T02:27:06;11.70;99.90
7920;DHT22;18778;47.610;9.776;2023-05-10T02:32:00;11.70;99.90
7920;DHT22;18778;47.610;9.776;2023-05-10T02:34:27;11.70;99.90
7920;DHT22;18778;47.610;9.776;2023-05-10T02:39:21;11.70;99.90
7920;DHT22;18778;47.610;9.776;2023-05-10T02:44:15;11.70;99.90
7920;DHT22;18778;47.610;9.776;2023-05-10T02:51:37;11.60;99.90
7920;DHT22;18778;47.610;9.776;2023-05-10T02:54:15;11.70;99.90
7920;DHT22;18778;47.610;9.776;2023-05-10T02:56:47;11.70;99.90
7920;DHT22;18778;47.610;9.776;2023-05-10T03:16:51;11.70;99.90
7920;DHT22;18778;47.610;9.776;2023-05-10T03:19:32;11.60;99.90
7920;DHT22;18778;47.610;9.776;2023-05-10T03:22:02;11.70;99.90
7920;DHT22;18778;47.610;9.776;2023-05-10T03:24:30;11.60;99.90
7920;DHT22;18778;47.610;9.776;2023-05-10T03:26:56;11.70;99.90
7920;DHT22;18778;47.610;9.776;2023-05-10T03:31:49;11.70;99.90
7920;DHT22;18778;47.610;9.776;2023-05-10T04:13:20;11.70;99.90
7920;DHT22;18778;47.610;9.776;2023-05-10T04:15:46;11.70;99.90
7920;DHT22;18778;47.610;9.776;2023-05-10T04:18:11;12.90;99.90
7920;DHT22;18778;47.610;9.776;2023-05-10T04:20:37;11.70;99.90
7920;DHT22;18778;47.610;9.776;2023-05-10T04:25:28;11.70;99.90
7920;DHT22;18778;47.610;9.776;2023-05-10T04:27:54;11.70;99.90
7920;DHT22;18778;47.610;9.776;2023-05-10T04:30:19;11.60;99.90
7920;DHT22;18778;47.610;9.776;2023-05-10T04:32:45;11.60;99.90
7920;DHT22;18778;47.610;9.776;2023-05-10T04:35:11;11.60;99.90
7920;DHT22;18778;47.610;9.776;2023-05-10T04:37:36;11.60;99.90
7920;DHT22;18778;47.610;9.776;2023-05-10T04:40:02;11.60;99.90
7920;DHT22;18778;47.610;9.776;2023-05-10T04:42:28;11.80;99.90
7920;DHT22;18778;47.610;9.776;2023-05-10T04:44:54;11.70;99.90
7920;DHT22;18778;47.610;9.776;2023-05-10T04:47:20;11.70;99.90
7920;DHT22;18778;47.610;9.776;2023-05-10T04:49:45;13.80;99.90
7920;DHT22;18778;47.610;9.776;2023-05-10T04:52:11;11.80;99.90
7920;DHT22;18778;47.610;9.776;2023-05-10T04:54:36;12.20;99.90
7920;DHT22;18778;47.610;9.776;2023-05-10T04:59:28;11.80;99.90
7920;DHT22;18778;47.610;9.776;2023-05-10T05:04:19;11.90;99.90
7920;DHT22;18778;47.610;9.776;2023-05-10T05:06:45;11.90;99.90
7920;DHT22;18778;47.610;9.776;2023-05-10T05:09:11;16.10;99.90
7920;DHT22;18778;47.610;9.776;2023-05-10T05:11:36;12.00;99.90
7920;DHT22;18778;47.610;9.776;2023-05-10T05:16:30;12.10;99.90
7920;DHT22;18778;47.610;9.776;2023-05-10T05:18:57;12.30;99.90
7920;DHT22;18778;47.610;9.776;2023-05-10T05:21:22;12.20;99.90
7920;DHT22;18778;47.610;9.776;2023-05-10T05:23:49;12.30;99.90
7920;DHT22;18778;47.610;9.776;2023-05-10T05:26:14;12.40;99.90
7920;DHT22;18778;47.610;9.776;2023-05-10T05:28:40;12.50;99.90
7920;DHT22;18778;47.610;9.776;2023-05-10T05:36:03;12.80;99.90
7920;DHT22;18778;47.610;9.776;2023-05-10T05:40:55;12.90;99.90
7920;DHT22;18778;47.610;9.776;2023-05-10T05:43:21;12.80;99.90
7920;DHT22;18778;47.610;9.776;2023-05-10T05:45:46;12.80;99.90
7920;DHT22;18778;47.610;9.776;2023-05-10T05:48:12;12.80;99.90
7920;DHT22;18778;47.610;9.776;2023-05-10T05:50:37;12.70;99.90
7920;DHT22;18778;47.610;9.776;2023-05-10T05:53:03;12.70;99.90
7920;DHT22;18778;47.610;9.776;2023-05-10T05:55:29;12.70;99.90
7920;DHT22;18778;47.610;9.776;2023-05-10T05:57:57;12.80;99.90
7920;DHT22;18778;47.610;9.776;2023-05-10T06:00:22;12.70;99.90
7920;DHT22;18778;47.610;9.776;2023-05-10T06:02:48;12.70;99.90
7920;DHT22;18778;47.610;9.776;2023-05-10T06:05:14;12.70;99.90
7920;DHT22;18778;47.610;9.776;2023-05-10T06:07:40;12.70;99.90
7920;DHT22;18778;47.610;9.776;2023-05-10T06:10:09;12.50;99.90
7920;DHT22;18778;47.610;9.776;2023-05-10T06:12:35;12.50;99.90
7920;DHT22;18778;47.610;9.776;2023-05-10T06:15:01;12.60;99.90
7920;DHT22;18778;47.610;9.776;2023-05-10T06:17:28;12.70;99.90
7920;DHT22;18778;47.610;9.776;2023-05-10T06:24:48;12.90;99.90
7920;DHT22;18778;47.610;9.776;2023-05-10T06:27:14;13.70;99.90
7920;DHT22;18778;47.610;9.776;2023-05-10T06:32:05;12.90;99.90
7920;DHT22;18778;47.610;9.776;2023-05-10T06:36:57;12.90;99.90
7920;DHT22;18778;47.610;9.776;2023-05-10T06:44:15;13.00;99.90
7920;DHT22;18778;47.610;9.776;2023-05-10T06:46:40;13.10;99.90
7920;DHT22;18778;47.610;9.776;2023-05-10T06:49:07;13.20;99.90
7920;DHT22;18778;47.610;9.776;2023-05-10T06:51:32;13.40;99.90
7920;DHT22;18778;47.610;9.776;2023-05-10T06:53:58;13.10;99.90
7920;DHT22;18778;47.610;9.776;2023-05-10T06:56:23;13.10;99.90
7920;DHT22;18778;47.610;9.776;2023-05-10T06:58:49;13.00;99.90
7920;DHT22;18778;47.610;9.776;2023-05-10T07:01:14;13.00;99.90
7920;DHT22;18778;47.610;9.776;2023-05-10T07:03:40;13.50;99.90
7920;DHT22;18778;47.610;9.776;2023-05-10T07:06:05;13.50;99.90
7920;DHT22;18778;47.610;9.776;2023-05-10T07:08:33;12.80;99.90
7920;DHT22;18778;47.610;9.776;2023-05-10T07:11:06;12.80;99.90
7920;DHT22;18778;47.610;9.776;2023-05-10T07:13:33;14.40;99.90
7920;DHT22;18778;47.610;9.776;2023-05-10T07:15:59;12.80;99.90
7920;DHT22;18778;47.610;9.776;2023-05-10T07:18:25;12.80;99.90
7920;DHT22;18778;47.610;9.776;2023-05-10T07:20:51;12.90;99.90
7920;DHT22;18778;47.610;9.776;2023-05-10T07:25:51;12.90;99.90
7920;DHT22;18778;47.610;9.776;2023-05-10T07:28:17;12.90;99.90
7920;DHT22;18778;47.610;9.776;2023-05-10T07:30:43;12.90;99.90
7920;DHT22;18778;47.610;9.776;2023-05-10T07:33:10;12.80;99.90
7920;DHT22;18778;47.610;9.776;2023-05-10T07:35:36;12.90;99.90
7920;DHT22;18778;47.610;9.776;2023-05-10T07:40:28;13.00;99.90
7920;DHT22;18778;47.610;9.776;2023-05-10T07:42:54;13.00;99.90
7920;DHT22;18778;47.610;9.776;2023-05-10T07:45:20;13.10;99.90
7920;DHT22;18778;47.610;9.776;2023-05-10T07:47:45;13.90;99.90
7920;DHT22;18778;47.610;9.776;2023-05-10T07:50:11;13.20;99.90
7920;DHT22;18778;47.610;9.776;2023-05-10T07:52:36;13.30;99.90
7920;DHT22;18778;47.610;9.776;2023-05-10T07:55:02;13.20;99.90
7920;DHT22;18778;47.610;9.776;2023-05-10T07:57:27;13.20;99.90
7920;DHT22;18778;47.610;9.776;2023-05-10T07:59:53;13.60;99.90
7920;DHT22;18778;47.610;9.776;2023-05-10T08:04:44;13.30;99.90
7920;DHT22;18778;47.610;9.776;2023-05-10T08:07:10;15.80;99.90
7920;DHT22;18778;47.610;9.776;2023-05-10T08:09:36;13.20;99.90
7920;DHT22;18778;47.610;9.776;2023-05-10T08:12:02;13.10;99.90
7920;DHT22;18778;47.610;9.776;2023-05-10T08:14:28;13.10;99.90
7920;DHT22;18778;47.610;9.776;2023-05-10T08:16:54;12.80;99.90
7920;DHT22;18778;47.610;9.776;2023-05-10T08:19:20;12.90;99.90
7920;DHT22;18778;47.610;9.776;2023-05-10T08:21:46;15.20;99.90
7920;DHT22;18778;47.610;9.776;2023-05-10T08:24:12;12.70;99.90
7920;DHT22;18778;47.610;9.776;2023-05-10T08:26:38;12.70;99.90
7920;DHT22;18778;47.610;9.776;2023-05-10T08:29:03;12.60;99.90
7920;DHT22;18778;47.610;9.776;2023-05-10T08:31:29;12.70;99.90
7920;DHT22;18778;47.610;9.776;2023-05-10T08:33:56;13.00;99.90
7920;DHT22;18778;47.610;9.776;2023-05-10T08:36:21;13.00;99.90
7920;DHT22;18778;47.610;9.776;2023-05-10T08:38:50;13.40;99.90
7920;DHT22;18778;47.610;9.776;2023-05-10T08:41:19;13.40;99.90
7920;DHT22;18778;47.610;9.776;2023-05-10T08:43:46;13.50;99.90
7920;DHT22;18778;47.610;9.776;2023-05-10T08:46:16;13.40;99.90
7920;DHT22;18778;47.610;9.776;2023-05-10T08:48:47;13.30;99.90
7920;DHT22;18778;47.610;9.776;2023-05-10T08:51:18;13.20;99.90
7920;DHT22;18778;47.610;9.776;2023-05-10T08:53:44;13.20;99.90
7920;DHT22;18778;47.610;9.776;2023-05-10T08:56:10;13.20;99.90
7920;DHT22;18778;47.610;9.776;2023-05-10T08:58:36;13.40;99.90
7920;DHT22;18778;47.610;9.776;2023-05-10T09:01:03;16.30;99.90
7920;DHT22;18778;47.610;9.776;2023-05-10T09:03:30;14.00;99.90
7920;DHT22;18778;47.610;9.776;2023-05-10T09:08:25;13.90;99.90
7920;DHT22;18778;47.610;9.776;2023-05-10T09:10:52;13.80;99.90
7920;DHT22;18778;47.610;9.776;2023-05-10T09:13:18;13.60;99.90
7920;DHT22;18778;47.610;9.776;2023-05-10T09:20:37;13.50;99.90
7920;DHT22;18778;47.610;9.776;2023-05-10T09:23:02;13.30;99.90
7920;DHT22;18778;47.610;9.776;2023-05-10T09:25:28;13.20;99.90
7920;DHT22;18778;47.610;9.776;2023-05-10T09:27:55;13.20;99.90
7920;DHT22;18778;47.610;9.776;2023-05-10T09:35:18;13.40;99.90
7920;DHT22;18778;47.610;9.776;2023-05-10T09:37:47;13.60;99.90
7920;DHT22;18778;47.610;9.776;2023-05-10T09:40:18;13.50;99.90
7920;DHT22;18778;47.610;9.776;2023-05-10T09:45:25;13.80;99.90
7920;DHT22;18778;47.610;9.776;2023-05-10T09:47:51;13.70;99.90
7920;DHT22;18778;47.610;9.776;2023-05-10T09:50:17;13.80;99.90
7920;DHT22;18778;47.610;9.776;2023-05-10T09:52:56;16.40;99.90
7920;DHT22;18778;47.610;9.776;2023-05-10T09:58:01;13.90;99.90
7920;DHT22;18778;47.610;9.776;2023-05-10T10:00:28;16.70;99.90
7920;DHT22;18778;47.610;9.776;2023-05-10T10:02:58;13.70;99.90
7920;DHT22;18778;47.610;9.776;2023-05-10T10:05:35;13.60;99.90
7920;DHT22;18778;47.610;9.776;2023-05-10T10:08:03;16.80;99.90
7920;DHT22;18778;47.610;9.776;2023-05-10T10:10:29;13.90;99.90
7920;DHT22;18778;47.610;9.776;2023-05-10T10:12:55;14.10;99.90
7920;DHT22;18778;47.610;9.776;2023-05-10T10:15:22;14.10;99.90
7920;DHT22;18778;47.610;9.776;2023-05-10T10:17:48;14.10;99.90
7920;DHT22;18778;47.610;9.776;2023-05-10T10:20:15;13.90;99.90
7920;DHT22;18778;47.610;9.776;2023-05-10T10:22:41;13.80;99.90
7920;DHT22;18778;47.610;9.776;2023-05-10T10:25:08;13.60;99.90
7920;DHT22;18778;47.610;9.776;2023-05-10T10:30:43;13.90;99.90
7920;DHT22;18778;47.610;9.776;2023-05-10T10:33:33;14.00;99.90
7920;DHT22;18778;47.610;9.776;2023-05-10T10:36:02;14.00;99.90
7920;DHT22;18778;47.610;9.776;2023-05-10T10:44:22;13.90;99.90
7920;DHT22;18778;47.610;9.776;2023-05-10T10:47:04;14.00;99.90
7920;DHT22;18778;47.610;9.776;2023-05-10T10:49:42;14.00;99.90
7920;DHT22;18778;47.610;9.776;2023-05-10T10:52:31;14.00;99.90
7920;DHT22;18778;47.610;9.776;2023-05-10T10:55:11;14.00;99.90
7920;DHT22;18778;47.610;9.776;2023-05-10T11:00:31;13.90;99.90
7920;DHT22;18778;47.610;9.776;2023-05-10T11:05:50;13.90;99.90
7920;DHT22;18778;47.610;9.776;2023-05-10T11:08:41;13.90;99.90
7920;DHT22;18778;47.610;9.776;2023-05-10T11:11:09;14.20;99.90
7920;DHT22;18778;47.610;9.776;2023-05-10T11:13:42;14.00;99.90
7920;DHT22;18778;47.610;9.776;2023-05-10T11:16:22;13.40;99.90
7920;DHT22;18778;47.610;9.776;2023-05-10T11:18:58;13.30;99.90
7920;DHT22;18778;47.610;9.776;2023-05-10T11:21:24;12.60;99.90
7920;DHT22;18778;47.610;9.776;2023-05-10T11:26:17;12.30;99.90
7920;DHT22;18778;47.610;9.776;2023-05-10T11:28:47;12.30;99.90
7920;DHT22;18778;47.610;9.776;2023-05-10T11:31:15;14.80;99.90
7920;DHT22;18778;47.610;9.776;2023-05-10T11:33:47;14.50;99.90
7920;DHT22;18778;47.610;9.776;2023-05-10T11:36:18;12.30;99.90
7920;DHT22;18778;47.610;9.776;2023-05-10T11:38:45;12.30;99.90
7920;DHT22;18778;47.610;9.776;2023-05-10T11:41:11;12.40;99.90
7920;DHT22;18778;47.610;9.776;2023-05-10T11:43:41;12.50;99.90
7920;DHT22;18778;47.610;9.776;2023-05-10T11:46:08;12.60;99.90
7920;DHT22;18778;47.610;9.776;2023-05-10T11:48:35;12.50;99.90
7920;DHT22;18778;47.610;9.776;2023-05-10T11:51:01;12.60;99.90
7920;DHT22;18778;47.610;9.776;2023-05-10T11:55:53;12.60;99.90
7920;DHT22;18778;47.610;9.776;2023-05-10T11:58:19;12.90;99.90
7920;DHT22;18778;47.610;9.776;2023-05-10T12:03:13;13.30;99.90
7920;DHT22;18778;47.610;9.776;2023-05-10T12:08:35;13.40;99.90
7920;DHT22;18778;47.610;9.776;2023-05-10T12:11:08;13.50;99.90
7920;DHT22;18778;47.610;9.776;2023-05-10T12:13:39;13.50;99.90
7920;DHT22;18778;47.610;9.776;2023-05-10T12:24:04;13.40;99.90
7920;DHT22;18778;47.610;9.776;2023-05-10T12:26:33;13.50;99.90
7920;DHT22;18778;47.610;9.776;2023-05-10T12:29:16;13.40;99.90
7920;DHT22;18778;47.610;9.776;2023-05-10T12:31:56;14.20;99.90
7920;DHT22;18778;47.610;9.776;2023-05-10T12:34:41;14.30;99.90
7920;DHT22;18778;47.610;9.776;2023-05-10T12:37:06;14.30;99.90
7920;DHT22;18778;47.610;9.776;2023-05-10T12:39:44;14.30;99.90
7920;DHT22;18778;47.610;9.776;2023-05-10T12:42:11;14.20;99.90
7920;DHT22;18778;47.610;9.776;2023-05-10T12:44:37;14.40;99.90
7920;DHT22;18778;47.610;9.776;2023-05-10T12:47:02;14.40;99.90
7920;DHT22;18778;47.610;9.776;2023-05-10T12:49:28;14.40;99.90
7920;DHT22;18778;47.610;9.776;2023-05-10T12:51:53;14.60;99.90
7920;DHT22;18778;47.610;9.776;2023-05-10T12:54:19;14.70;99.90
7920;DHT22;18778;47.610;9.776;2023-05-10T12:59:11;14.70;99.90
7920;DHT22;18778;47.610;9.776;2023-05-10T13:01:36;15.00;99.90
7920;DHT22;18778;47.610;9.776;2023-05-10T13:06:28;14.90;99.90
7920;DHT22;18778;47.610;9.776;2023-05-10T13:08:53;14.60;99.90
7920;DHT22;18778;47.610;9.776;2023-05-10T13:11:19;14.70;99.90
7920;DHT22;18778;47.610;9.776;2023-05-10T13:13:45;14.80;99.90
7920;DHT22;18778;47.610;9.776;2023-05-10T13:16:11;14.80;99.90
7920;DHT22;18778;47.610;9.776;2023-05-10T13:21:02;15.10;99.90
7920;DHT22;18778;47.610;9.776;2023-05-10T13:23:30;15.30;99.90
7920;DHT22;18778;47.610;9.776;2023-05-10T13:30:48;14.90;99.90
7920;DHT22;18778;47.610;9.776;2023-05-10T13:33:13;17.70;99.90
7920;DHT22;18778;47.610;9.776;2023-05-10T13:38:05;14.20;99.90
7920;DHT22;18778;47.610;9.776;2023-05-10T13:45:25;14.60;99.90
7920;DHT22;18778;47.610;9.776;2023-05-10T13:47:50;14.70;99.90
7920;DHT22;18778;47.610;9.776;2023-05-10T13:50:17;15.30;99.90
7920;DHT22;18778;47.610;9.776;2023-05-10T13:52:43;14.30;99.90
7920;DHT22;18778;47.610;9.776;2023-05-10T13:55:08;14.90;99.90
7920;DHT22;18778;47.610;9.776;2023-05-10T13:57:35;16.50;99.90
7920;DHT22;18778;47.610;9.776;2023-05-10T14:00:01;14.20;99.90
7920;DHT22;18778;47.610;9.776;2023-05-10T14:02:27;14.20;99.90
7920;DHT22;18778;47.610;9.776;2023-05-10T14:07:18;14.30;99.90
7920;DHT22;18778;47.610;9.776;2023-05-10T14:09:44;14.40;99.90
7920;DHT22;18778;47.610;9.776;2023-05-10T14:12:09;14.50;99.90
7920;DHT22;18778;47.610;9.776;2023-05-10T14:14:35;16.50;99.90
7920;DHT22;18778;47.610;9.776;2023-05-10T14:17:01;18.00;99.90
7920;DHT22;18778;47.610;9.776;2023-05-10T14:26:45;14.30;99.90
7920;DHT22;18778;47.610;9.776;2023-05-10T14:29:10;14.20;99.90
7920;DHT22;18778;47.610;9.776;2023-05-10T14:31:36;17.70;99.90
7920;DHT22;18778;47.610;9.776;2023-05-10T14:34:01;14.70;99.90
7920;DHT22;18778;47.610;9.776;2023-05-10T14:38:54;13.60;99.90
7920;DHT22;18778;47.610;9.776;2023-05-10T14:41:19;13.50;99.90
7920;DHT22;18778;47.610;9.776;2023-05-10T14:43:45;13.30;99.90
7920;DHT22;18778;47.610;9.776;2023-05-10T14:46:11;13.30;99.90
7920;DHT22;18778;47.610;9.776;2023-05-10T14:48:36;13.40;99.90
7920;DHT22;18778;47.610;9.776;2023-05-10T14:51:02;14.10;99.90
7920;DHT22;18778;47.610;9.776;2023-05-10T14:53:28;13.20;99.90
7920;DHT22;18778;47.610;9.776;2023-05-10T14:58:20;12.80;99.90
7920;DHT22;18778;47.610;9.776;2023-05-10T15:00:45;15.70;99.90
7920;DHT22;18778;47.610;9.776;2023-05-10T15:05:37;12.90;99.90
7920;DHT22;18778;47.610;9.776;2023-05-10T15:08:03;12.90;99.90
7920;DHT22;18778;47.610;9.776;2023-05-10T15:10:30;15.00;99.90
7920;DHT22;18778;47.610;9.776;2023-05-10T15:12:55;12.70;99.90
7920;DHT22;18778;47.610;9.776;2023-05-10T15:15:21;13.60;99.90
7920;DHT22;18778;47.610;9.776;2023-05-10T15:17:47;12.90;99.90
7920;DHT22;18778;47.610;9.776;2023-05-10T15:20:13;12.90;99.90
7920;DHT22;18778;47.610;9.776;2023-05-10T15:22:38;12.80;99.90
7920;DHT22;18778;47.610;9.776;2023-05-10T15:25:07;12.90;99.90
7920;DHT22;18778;47.610;9.776;2023-05-10T15:27:33;12.80;99.90
7920;DHT22;18778;47.610;9.776;2023-05-10T15:29:58;12.80;99.90
7920;DHT22;18778;47.610;9.776;2023-05-10T15:32:24;12.80;99.90
7920;DHT22;18778;47.610;9.776;2023-05-10T15:34:50;12.70;99.90
7920;DHT22;18778;47.610;9.776;2023-05-10T15:37:16;13.30;99.90
7920;DHT22;18778;47.610;9.776;2023-05-10T15:39:41;12.60;99.90
7920;DHT22;18778;47.610;9.776;2023-05-10T15:42:16;12.70;99.90
7920;DHT22;18778;47.610;9.776;2023-05-10T15:44:42;15.30;99.90
7920;DHT22;18778;47.610;9.776;2023-05-10T15:47:09;12.30;99.90
7920;DHT22;18778;47.610;9.776;2023-05-10T15:49:35;12.50;99.90
7920;DHT22;18778;47.610;9.776;2023-05-10T15:52:01;12.60;99.90
7920;DHT22;18778;47.610;9.776;2023-05-10T15:56:52;12.70;99.90
7920;DHT22;18778;47.610;9.776;2023-05-10T15:59:19;12.70;99.90
7920;DHT22;18778;47.610;9.776;2023-05-10T16:01:44;12.70;99.90
7920;DHT22;18778;47.610;9.776;2023-05-10T16:04:10;12.70;99.90
7920;DHT22;18778;47.610;9.776;2023-05-10T16:06:36;12.70;99.90
7920;DHT22;18778;47.610;9.776;2023-05-10T16:09:02;15.40;99.90
7920;DHT22;18778;47.610;9.776;2023-05-10T16:11:27;12.60;99.90
7920;DHT22;18778;47.610;9.776;2023-05-10T16:13:53;12.80;99.90
7920;DHT22;18778;47.610;9.776;2023-05-10T16:16:19;12.80;99.90
7920;DHT22;18778;47.610;9.776;2023-05-10T16:18:44;12.70;99.90
7920;DHT22;18778;47.610;9.776;2023-05-10T16:21:10;12.70;99.90
7920;DHT22;18778;47.610;9.776;2023-05-10T16:23:35;12.60;99.90
7920;DHT22;18778;47.610;9.776;2023-05-10T16:26:01;12.60;99.90
7920;DHT22;18778;47.610;9.776;2023-05-10T16:28:27;12.50;99.90
7920;DHT22;18778;47.610;9.776;2023-05-10T16:30:53;12.50;99.90
7920;DHT22;18778;47.610;9.776;2023-05-10T16:35:45;12.40;99.90
7920;DHT22;18778;47.610;9.776;2023-05-10T16:38:10;12.40;99.90
7920;DHT22;18778;47.610;9.776;2023-05-10T16:40:36;12.30;99.90
7920;DHT22;18778;47.610;9.776;2023-05-10T16:43:01;14.60;99.90
7920;DHT22;18778;47.610;9.776;2023-05-10T16:45:29;12.30;99.90
7920;DHT22;18778;47.610;9.776;2023-05-10T16:52:47;12.50;99.90
7920;DHT22;18778;47.610;9.776;2023-05-10T16:55:12;12.50;99.90
7920;DHT22;18778;47.610;9.776;2023-05-10T16:57:38;12.50;99.90
7920;DHT22;18778;47.610;9.776;2023-05-10T17:00:03;12.50;99.90
7920;DHT22;18778;47.610;9.776;2023-05-10T17:02:29;12.50;99.90
7920;DHT22;18778;47.610;9.776;2023-05-10T17:07:21;12.50;99.90
7920;DHT22;18778;47.610;9.776;2023-05-10T17:12:13;12.50;99.90
7920;DHT22;18778;47.610;9.776;2023-05-10T17:14:39;12.40;99.90
7920;DHT22;18778;47.610;9.776;2023-05-10T17:17:05;15.80;99.90
7920;DHT22;18778;47.610;9.776;2023-05-10T17:19:31;12.30;99.90
7920;DHT22;18778;47.610;9.776;2023-05-10T17:21:57;12.30;99.90
7920;DHT22;18778;47.610;9.776;2023-05-10T17:24:22;12.30;99.90
7920;DHT22;18778;47.610;9.776;2023-05-10T17:26:48;12.20;99.90
7920;DHT22;18778;47.610;9.776;2023-05-10T17:29:13;12.20;99.90
7920;DHT22;18778;47.610;9.776;2023-05-10T17:31:40;12.20;99.90
7920;DHT22;18778;47.610;9.776;2023-05-10T17:34:06;12.20;99.90
7920;DHT22;18778;47.610;9.776;2023-05-10T17:36:31;12.10;99.90
7920;DHT22;18778;47.610;9.776;2023-05-10T17:38:57;11.90;99.90
7920;DHT22;18778;47.610;9.776;2023-05-10T17:41:23;11.90;99.90
7920;DHT22;18778;47.610;9.776;2023-05-10T17:43:49;11.90;99.90
7920;DHT22;18778;47.610;9.776;2023-05-10T17:46:14;11.80;99.90
7920;DHT22;18778;47.610;9.776;2023-05-10T17:48:40;11.70;99.90
7920;DHT22;18778;47.610;9.776;2023-05-10T17:53:33;11.70;99.90
7920;DHT22;18778;47.610;9.776;2023-05-10T17:55:59;11.60;99.90
7920;DHT22;18778;47.610;9.776;2023-05-10T18:00:52;11.70;99.90
7920;DHT22;18778;47.610;9.776;2023-05-10T18:03:18;11.60;99.90
7920;DHT22;18778;47.610;9.776;2023-05-10T18:05:46;11.50;99.90
7920;DHT22;18778;47.610;9.776;2023-05-10T18:08:11;11.40;99.90
7920;DHT22;18778;47.610;9.776;2023-05-10T18:10:37;11.50;99.90
7920;DHT22;18778;47.610;9.776;2023-05-10T18:13:03;12.20;99.90
7920;DHT22;18778;47.610;9.776;2023-05-10T18:15:32;11.10;99.90
7920;DHT22;18778;47.610;9.776;2023-05-10T18:18:02;11.30;99.90
7920;DHT22;18778;47.610;9.776;2023-05-10T18:20:28;11.20;99.90
7920;DHT22;18778;47.610;9.776;2023-05-10T18:22:54;11.20;99.90
7920;DHT22;18778;47.610;9.776;2023-05-10T18:25:20;11.20;99.90
7920;DHT22;18778;47.610;9.776;2023-05-10T18:27:45;11.10;99.90
7920;DHT22;18778;47.610;9.776;2023-05-10T18:30:12;11.10;99.90
7920;DHT22;18778;47.610;9.776;2023-05-10T18:32:38;11.10;99.90
7920;DHT22;18778;47.610;9.776;2023-05-10T18:35:04;11.10;99.90
7920;DHT22;18778;47.610;9.776;2023-05-10T18:37:31;11.10;99.90
7920;DHT22;18778;47.610;9.776;2023-05-10T18:39:57;11.00;99.90
7920;DHT22;18778;47.610;9.776;2023-05-10T18:44:49;11.10;99.90
7920;DHT22;18778;47.610;9.776;2023-05-10T18:47:14;11.00;99.90
7920;DHT22;18778;47.610;9.776;2023-05-10T18:49:40;11.00;99.90
7920;DHT22;18778;47.610;9.776;2023-05-10T18:54:31;11.00;99.90
7920;DHT22;18778;47.610;9.776;2023-05-10T18:56:57;11.00;99.90
7920;DHT22;18778;47.610;9.776;2023-05-10T18:59:23;10.90;99.90
7920;DHT22;18778;47.610;9.776;2023-05-10T19:01:49;10.80;99.90
7920;DHT22;18778;47.610;9.776;2023-05-10T19:04:15;10.90;99.90
7920;DHT22;18778;47.610;9.776;2023-05-10T19:06:40;10.90;99.90
7920;DHT22;18778;47.610;9.776;2023-05-10T19:11:33;10.90;99.90
7920;DHT22;18778;47.610;9.776;2023-05-10T19:13:59;10.80;99.90
7920;DHT22;18778;47.610;9.776;2023-05-10T19:18:52;10.70;99.90
7920;DHT22;18778;47.610;9.776;2023-05-10T19:21:18;10.60;99.90
7920;DHT22;18778;47.610;9.776;2023-05-10T19:26:09;10.60;99.90
7920;DHT22;18778;47.610;9.776;2023-05-10T19:28:35;10.70;99.90
7920;DHT22;18778;47.610;9.776;2023-05-10T19:31:01;10.50;99.90
7920;DHT22;18778;47.610;9.776;2023-05-10T19:33:27;12.00;99.90
7920;DHT22;18778;47.610;9.776;2023-05-10T19:35:54;10.50;99.90
7920;DHT22;18778;47.610;9.776;2023-05-10T19:43:13;10.50;99.90
7920;DHT22;18778;47.610;9.776;2023-05-10T19:45:39;10.30;99.90
7920;DHT22;18778;47.610;9.776;2023-05-10T19:48:04;10.40;99.90
7920;DHT22;18778;47.610;9.776;2023-05-10T19:50:30;10.40;99.90
7920;DHT22;18778;47.610;9.776;2023-05-10T19:57:56;10.40;99.90
7920;DHT22;18778;47.610;9.776;2023-05-10T20:00:24;10.30;99.90
7920;DHT22;18778;47.610;9.776;2023-05-10T20:02:51;10.30;99.90
7920;DHT22;18778;47.610;9.776;2023-05-10T20:05:17;10.30;99.90
7920;DHT22;18778;47.610;9.776;2023-05-10T20:10:08;10.30;99.90
7920;DHT22;18778;47.610;9.776;2023-05-10T20:15:01;10.30;99.90
7920;DHT22;18778;47.610;9.776;2023-05-10T20:19:53;10.30;99.90
7920;DHT22;18778;47.610;9.776;2023-05-10T20:22:19;10.20;99.90
7920;DHT22;18778;47.610;9.776;2023-05-10T20:24:45;10.00;99.90
7920;DHT22;18778;47.610;9.776;2023-05-10T20:27:11;10.30;99.90
7920;DHT22;18778;47.610;9.776;2023-05-10T20:32:04;10.30;99.90
7920;DHT22;18778;47.610;9.776;2023-05-10T20:34:29;10.20;99.90
7920;DHT22;18778;47.610;9.776;2023-05-10T20:36:55;10.10;99.90
7920;DHT22;18778;47.610;9.776;2023-05-10T20:39:21;10.10;99.90